Time;durP1;ratioP1;P1;durP2;ratioP2;P2;SDS_P1;SDS_P2;PMS_P1;PMS_P2;Temp;Humidity;BMP_temperature;BMP_pressure;BME280_temperature;BME280_humidity;BME280_pressure;Samples;Min_cycle;Max_cycle;Signal;HPM_P1;HPM_P2
2021/06/18 00:01:26;;;;;;;9.32;7.22;;;25.50;56.90;;;;;;5128554;27;20023;-68
2021/06/18 00:04:12;;;;;;;8.82;7.80;;;25.50;57.20;;;;;;5117664;27;20110;-68
2021/06/18 00:06:57;;;;;;;9.90;7.05;;;25.40;57.20;;;;;;5127075;27;20031;-68
2021/06/18 00:09:43;;;;;;;9.75;7.85;;;25.40;57.30;;;;;;5132632;27;20023;-68
2021/06/18 00:12:29;;;;;;;11.63;7.43;;;25.40;57.50;;;;;;5128459;27;20490;-67
2021/06/18 00:15:16;;;;;;;12.05;7.78;;;25.30;57.60;;;;;;5130154;27;20035;-68
2021/06/18 00:18:01;;;;;;;8.38;7.30;;;25.30;57.80;;;;;;5092469;28;20041;-68
2021/06/18 00:20:47;;;;;;;8.43;7.50;;;25.30;57.90;;;;;;5104233;28;20107;-68
2021/06/18 00:23:33;;;;;;;8.77;6.88;;;25.20;58.10;;;;;;5112039;28;20023;-68
2021/06/18 00:26:19;;;;;;;10.20;7.90;;;25.20;58.10;;;;;;5110553;28;20040;-68
2021/06/18 00:29:05;;;;;;;8.88;7.97;;;25.20;58.30;;;;;;5112264;28;20071;-68
2021/06/18 00:31:51;;;;;;;9.07;7.57;;;25.10;58.90;;;;;;5122710;27;20019;-69
2021/06/18 00:34:37;;;;;;;11.63;8.10;;;25.10;58.50;;;;;;5129932;27;20027;-69
2021/06/18 00:37:23;;;;;;;10.23;7.30;;;25.10;58.70;;;;;;5126636;27;20106;-69
2021/06/18 00:40:09;;;;;;;9.73;7.47;;;25.00;58.80;;;;;;5132790;27;20019;-69
2021/06/18 00:42:55;;;;;;;8.98;7.65;;;25.00;58.90;;;;;;5133368;27;20138;-69
2021/06/18 00:45:40;;;;;;;8.32;7.53;;;25.00;59.10;;;;;;5121226;27;20097;-69
2021/06/18 00:48:26;;;;;;;9.18;8.15;;;24.90;59.20;;;;;;5132080;27;20482;-69
2021/06/18 00:51:12;;;;;;;11.55;7.28;;;24.90;59.40;;;;;;5129165;27;20029;-69
2021/06/18 00:53:58;;;;;;;13.32;8.82;;;24.90;59.70;;;;;;5114311;27;20503;-69
2021/06/18 00:56:44;;;;;;;9.20;8.27;;;24.80;59.90;;;;;;5096380;28;20023;-69
2021/06/18 00:59:30;;;;;;;8.80;7.70;;;24.80;59.90;;;;;;5111234;28;20023;-69
2021/06/18 01:02:16;;;;;;;10.82;8.07;;;24.80;60.20;;;;;;5124755;27;20054;-69
2021/06/18 01:05:02;;;;;;;11.20;8.27;;;24.70;60.30;;;;;;5129544;27;20548;-69
2021/06/18 01:08:00;;;;;;;9.68;8.35;;;24.70;60.60;;;;;;5111000;28;20063;-69
2021/06/18 01:10:59;;;;;;;9.18;7.93;;;24.60;60.70;;;;;;5110154;28;20064;-69
2021/06/18 01:13:59;;;;;;;9.25;8.35;;;24.60;61.00;;;;;;5120621;27;20464;-69
2021/06/18 01:17:02;;;;;;;9.18;8.18;;;24.60;61.20;;;;;;5110124;28;20110;-69
2021/06/18 01:20:20;;;;;;;10.70;8.40;;;24.50;61.50;;;;;;5095410;28;20025;-69
2021/06/18 01:23:25;;;;;;;10.63;7.80;;;24.40;61.70;;;;;;5091567;28;20052;-69
2021/06/18 01:26:24;;;;;;;;;;;24.40;61.90;;;;;;5098450;28;20525;-69
2021/06/18 01:29:10;;;;;;;9.85;8.25;;;24.40;60.90;;;;;;5110902;28;19919;-69
2021/06/18 01:32:01;;;;;;;9.55;8.55;;;24.30;61.90;;;;;;5121951;27;20026;-69
2021/06/18 01:34:50;;;;;;;10.10;8.05;;;24.30;62.40;;;;;;5102215;28;20039;-69
2021/06/18 01:37:37;;;;;;;10.13;9.13;;;24.20;63.00;;;;;;5108434;28;20425;-69
2021/06/18 01:40:26;;;;;;;9.70;8.73;;;24.20;62.80;;;;;;5098295;27;20023;-69
2021/06/18 01:43:15;;;;;;;11.02;9.25;;;24.10;62.90;;;;;;5110763;28;20030;-69
2021/06/18 01:46:02;;;;;;;14.52;9.07;;;24.10;63.10;;;;;;5095352;28;20703;-69
2021/06/18 01:48:54;;;;;;;10.23;9.02;;;24.10;63.30;;;;;;5091759;28;20035;-69
2021/06/18 01:51:42;;;;;;;11.00;9.82;;;24.10;63.50;;;;;;5127990;27;20485;-70
2021/06/18 01:54:28;;;;;;;10.55;8.98;;;24.00;63.80;;;;;;5090571;28;20122;-70
2021/06/18 01:57:15;;;;;;;9.80;8.77;;;23.90;63.90;;;;;;5130066;27;20029;-70
2021/06/18 02:00:05;;;;;;;9.70;8.70;;;23.90;64.20;;;;;;5094590;28;20027;-70
2021/06/18 02:02:51;;;;;;;10.40;9.38;;;23.80;64.50;;;;;;5109805;28;20555;-70
2021/06/18 02:05:39;;;;;;;9.95;8.95;;;23.80;64.60;;;;;;5111318;27;20054;-70
2021/06/18 02:08:26;;;;;;;13.43;9.50;;;23.80;64.80;;;;;;5097004;28;20063;-70
2021/06/18 02:11:13;;;;;;;10.82;9.43;;;23.80;65.20;;;;;;5109099;28;20027;-69
2021/06/18 02:14:01;;;;;;;10.52;8.38;;;23.70;65.30;;;;;;5103474;27;20037;-70
2021/06/18 02:16:53;;;;;;;11.70;9.55;;;23.70;65.50;;;;;;5114234;27;20491;-70
2021/06/18 02:19:42;;;;;;;10.48;9.00;;;23.60;65.70;;;;;;5124160;27;20111;-70
2021/06/18 02:22:29;;;;;;;11.60;9.52;;;23.60;65.90;;;;;;5105995;28;20039;-71
2021/06/18 02:25:16;;;;;;;11.15;10.05;;;23.60;66.10;;;;;;5110766;27;20039;-69
2021/06/18 02:28:03;;;;;;;12.95;9.73;;;23.60;66.40;;;;;;5128429;27;20042;-70
2021/06/18 02:30:50;;;;;;;11.00;9.35;;;23.50;66.60;;;;;;5126066;27;20049;-70
2021/06/18 02:33:36;;;;;;;11.68;9.68;;;23.60;66.90;;;;;;5107566;28;20106;-70
2021/06/18 02:36:23;;;;;;;10.57;9.55;;;23.50;67.00;;;;;;5121607;27;20027;-70
2021/06/18 02:39:10;;;;;;;10.25;9.23;;;23.50;67.30;;;;;;5117345;27;20028;-70
2021/06/18 02:41:56;;;;;;;11.13;9.82;;;23.40;67.40;;;;;;5124325;27;20106;-70
2021/06/18 02:44:42;;;;;;;12.43;9.95;;;23.40;67.60;;;;;;5113667;28;20098;-70
2021/06/18 02:47:44;;;;;;;10.55;9.57;;;23.40;67.90;;;;;;5129925;28;20455;-70
2021/06/18 02:50:44;;;;;;;11.25;9.07;;;23.30;68.10;;;;;;5127429;28;20019;-70
2021/06/18 02:53:51;;;;;;;10.40;9.02;;;23.30;68.40;;;;;;5129587;28;20380;-70
2021/06/18 02:56:50;;;;;;;15.50;9.82;;;23.30;68.40;;;;;;5112274;28;20055;-70
2021/06/18 02:59:58;;;;;;;11.23;9.98;;;23.30;68.80;;;;;;5108775;28;20020;-70
2021/06/18 03:02:55;;;;;;;12.30;10.23;;;23.20;68.90;;;;;;5099609;28;20039;-69
2021/06/18 03:05:47;;;;;;;10.90;9.80;;;23.20;69.20;;;;;;5096535;28;20035;-69
2021/06/18 03:08:39;;;;;;;10.60;9.60;;;23.20;69.30;;;;;;5124909;28;20064;-70
2021/06/18 03:11:30;;;;;;;11.15;9.18;;;23.20;69.70;;;;;;5111195;28;20429;-70
2021/06/18 03:14:19;;;;;;;11.63;9.60;;;23.20;69.80;;;;;;5122908;28;20406;-70
2021/06/18 03:17:09;;;;;;;11.57;9.63;;;23.10;70.00;;;;;;5107709;28;20055;-70
2021/06/18 03:19:58;;;;;;;11.75;9.23;;;23.10;70.30;;;;;;5113321;28;20485;-70
2021/06/18 03:22:50;;;;;;;11.85;10.23;;;23.10;70.50;;;;;;5075023;28;20378;-69
2021/06/18 03:25:39;;;;;;;10.93;9.85;;;23.10;70.70;;;;;;5100359;28;20517;-70
2021/06/18 03:28:27;;;;;;;11.23;9.35;;;23.10;70.80;;;;;;5128334;28;20036;-70
2021/06/18 03:31:16;;;;;;;11.10;10.00;;;23.10;70.90;;;;;;5110166;28;20092;-70
2021/06/18 03:34:04;;;;;;;10.80;9.73;;;23.10;71.20;;;;;;5128757;28;20031;-70
2021/06/18 03:36:51;;;;;;;11.50;10.20;;;23.10;71.40;;;;;;5126151;28;20559;-70
2021/06/18 03:39:39;;;;;;;13.63;9.77;;;23.10;71.70;;;;;;5126018;28;20431;-70
2021/06/18 03:42:25;;;;;;;12.15;10.85;;;23.10;71.90;;;;;;5088990;28;20544;-70
2021/06/18 03:45:12;;;;;;;10.68;9.55;;;23.10;72.00;;;;;;5092012;28;20028;-70
2021/06/18 03:48:00;;;;;;;10.68;9.57;;;23.10;72.10;;;;;;5106989;28;20094;-70
2021/06/18 03:50:46;;;;;;;11.65;10.48;;;23.10;72.10;;;;;;5111927;28;20035;-70
2021/06/18 03:53:34;;;;;;;11.52;9.25;;;23.10;72.40;;;;;;5130785;27;20509;-70
2021/06/18 03:56:21;;;;;;;11.55;10.05;;;23.10;72.70;;;;;;5130110;27;20035;-69
2021/06/18 03:59:07;;;;;;;13.35;9.85;;;23.20;72.80;;;;;;5131704;27;20046;-70
2021/06/18 04:01:55;;;;;;;11.88;10.13;;;23.20;72.80;;;;;;5129854;27;20103;-70
2021/06/18 04:04:43;;;;;;;12.93;10.55;;;23.20;73.00;;;;;;5115950;27;20073;-70
2021/06/18 04:07:31;;;;;;;10.65;9.55;;;23.20;72.90;;;;;;5110608;27;20027;-70
2021/06/18 04:10:17;;;;;;;13.10;10.23;;;23.20;73.20;;;;;;5124842;27;21908;-70
2021/06/18 04:13:03;;;;;;;12.57;10.25;;;23.30;73.40;;;;;;5113131;28;20031;-70
2021/06/18 04:15:50;;;;;;;12.18;9.98;;;23.30;73.50;;;;;;5110461;28;20052;-70
2021/06/18 04:18:39;;;;;;;11.20;9.95;;;23.30;73.50;;;;;;5118903;27;20019;-70
2021/06/18 04:21:26;;;;;;;12.10;9.90;;;23.30;73.60;;;;;;5119098;27;20091;-70
2021/06/18 04:24:15;;;;;;;12.02;10.82;;;23.30;73.80;;;;;;5119782;27;20043;-70
2021/06/18 04:27:02;;;;;;;13.18;9.57;;;23.40;74.00;;;;;;5111451;28;20069;-70
2021/06/18 04:29:47;;;;;;;14.13;9.52;;;23.40;73.90;;;;;;5097436;28;20027;-70
2021/06/18 04:32:33;;;;;;;10.73;9.63;;;23.40;73.90;;;;;;5130690;27;20196;-70
2021/06/18 04:35:19;;;;;;;16.33;10.40;;;23.40;73.80;;;;;;5095489;28;20028;-70
2021/06/18 04:38:05;;;;;;;11.10;9.88;;;23.50;74.10;;;;;;5112918;27;20015;-70
2021/06/18 04:40:52;;;;;;;12.90;9.13;;;23.50;74.00;;;;;;5120962;27;20489;-70
2021/06/18 04:43:38;;;;;;;14.52;9.57;;;23.60;74.50;;;;;;5110505;28;20031;-70
2021/06/18 04:46:24;;;;;;;11.77;10.50;;;23.60;74.00;;;;;;5110543;28;20435;-70
2021/06/18 04:49:10;;;;;;;10.35;9.35;;;23.70;74.00;;;;;;5111419;28;20392;-70
2021/06/18 04:51:56;;;;;;;13.82;9.50;;;23.70;73.80;;;;;;5110391;28;20028;-70
2021/06/18 04:54:42;;;;;;;10.80;9.70;;;23.80;74.00;;;;;;5113412;27;20104;-70
2021/06/18 04:57:28;;;;;;;13.40;9.40;;;23.80;73.80;;;;;;5109308;27;20378;-70
2021/06/18 05:00:17;;;;;;;11.07;9.15;;;23.90;73.60;;;;;;5113399;27;20092;-70
2021/06/18 05:03:02;;;;;;;12.05;9.57;;;24.00;73.60;;;;;;5111221;28;20024;-70
2021/06/18 05:05:48;;;;;;;11.40;8.98;;;24.00;73.70;;;;;;5108624;28;20518;-71
2021/06/18 05:08:34;;;;;;;14.23;9.43;;;24.00;73.50;;;;;;5095227;28;20035;-70
2021/06/18 05:11:22;;;;;;;11.45;8.75;;;24.10;73.40;;;;;;5109387;28;20525;-69
2021/06/18 05:14:08;;;;;;;13.20;8.20;;;24.20;73.40;;;;;;5128591;27;20031;-70
2021/06/18 05:16:54;;;;;;;13.40;9.23;;;24.20;73.50;;;;;;5128403;27;20023;-69
2021/06/18 05:19:40;;;;;;;11.00;9.07;;;24.30;73.20;;;;;;5121013;27;20495;-69
2021/06/18 05:22:25;;;;;;;10.93;8.80;;;24.40;72.50;;;;;;5100834;28;20491;-70
2021/06/18 05:25:12;;;;;;;11.85;8.25;;;24.40;72.40;;;;;;5126095;27;20182;-69
2021/06/18 05:27:58;;;;;;;16.35;8.38;;;24.50;72.10;;;;;;5118637;27;20043;-69
2021/06/18 05:30:44;;;;;;;11.88;8.00;;;24.60;71.80;;;;;;5117405;27;20023;-69
2021/06/18 05:33:30;;;;;;;15.82;7.95;;;24.70;71.30;;;;;;5118839;27;20176;-59
2021/06/18 05:36:16;;;;;;;12.73;8.52;;;24.80;70.70;;;;;;5094588;28;20108;-60
2021/06/18 05:39:02;;;;;;;9.07;6.97;;;24.90;70.60;;;;;;5110857;28;20032;-60
2021/06/18 05:41:48;;;;;;;11.45;7.55;;;25.10;70.00;;;;;;5109112;28;20510;-62
2021/06/18 05:44:34;;;;;;;10.85;7.35;;;25.20;69.90;;;;;;5109494;28;20038;-60
2021/06/18 05:47:20;;;;;;;8.10;7.30;;;25.40;69.50;;;;;;5089659;28;20547;-58
2021/06/18 05:50:07;;;;;;;11.35;7.07;;;25.50;68.80;;;;;;5076901;28;20040;-60
2021/06/18 05:52:53;;;;;;;13.23;6.60;;;25.70;67.90;;;;;;5105109;28;20069;-67
2021/06/18 05:55:39;;;;;;;9.68;6.85;;;25.80;65.90;;;;;;5118259;27;20136;-67
2021/06/18 05:58:25;;;;;;;13.07;6.60;;;25.90;65.20;;;;;;5123641;27;20506;-68
2021/06/18 06:01:11;;;;;;;11.52;6.60;;;26.00;65.40;;;;;;5107381;28;20495;-67
2021/06/18 06:03:57;;;;;;;8.00;5.65;;;26.20;64.90;;;;;;5109067;28;20047;-67
2021/06/18 06:06:43;;;;;;;7.43;5.88;;;26.20;63.90;;;;;;5109137;28;20040;-67
2021/06/18 06:09:29;;;;;;;6.18;5.50;;;26.30;62.90;;;;;;5090133;28;20047;-67
2021/06/18 06:12:15;;;;;;;10.48;6.20;;;26.40;62.50;;;;;;5123591;27;20034;-67
2021/06/18 06:15:01;;;;;;;7.68;5.40;;;26.50;62.90;;;;;;5108118;28;20114;-66
2021/06/18 06:17:46;;;;;;;9.70;5.35;;;26.60;61.70;;;;;;5109672;28;20024;-69
2021/06/18 06:20:32;;;;;;;8.82;5.10;;;26.70;61.40;;;;;;5102212;28;20032;-70
2021/06/18 06:23:18;;;;;;;7.63;5.75;;;26.70;62.00;;;;;;5126171;27;20092;-70
2021/06/18 06:26:05;;;;;;;8.15;5.38;;;26.80;61.70;;;;;;5126433;27;20114;-70
2021/06/18 06:28:51;;;;;;;10.48;5.78;;;26.80;61.70;;;;;;5120517;27;20118;-70
2021/06/18 06:31:39;;;;;;;10.68;5.63;;;26.90;60.70;;;;;;5107171;28;20114;-70
2021/06/18 06:34:25;;;;;;;8.75;5.10;;;27.00;61.00;;;;;;5109834;28;20300;-70
2021/06/18 06:37:11;;;;;;;9.57;5.13;;;27.10;60.60;;;;;;5093498;28;20028;-70
2021/06/18 06:39:57;;;;;;;7.70;4.47;;;27.10;60.20;;;;;;5107233;28;20036;-69
2021/06/18 06:42:42;;;;;;;10.73;4.60;;;27.20;59.40;;;;;;5091738;28;20459;-69
2021/06/18 06:45:28;;;;;;;6.63;4.60;;;27.30;59.40;;;;;;5093326;28;20035;-70
2021/06/18 06:48:14;;;;;;;8.05;4.80;;;27.30;59.60;;;;;;5109336;28;20080;-70
2021/06/18 06:51:00;;;;;;;7.38;4.53;;;27.40;59.00;;;;;;5114235;28;20024;-71
2021/06/18 06:53:46;;;;;;;6.93;4.95;;;27.40;58.70;;;;;;5114395;28;20032;-70
2021/06/18 06:56:32;;;;;;;8.32;5.28;;;27.50;58.10;;;;;;5111197;28;20016;-70
2021/06/18 06:59:18;;;;;;;6.80;4.32;;;27.50;58.40;;;;;;5108732;28;20063;-70
2021/06/18 07:02:05;;;;;;;7.60;5.65;;;27.60;58.20;;;;;;5108569;28;20091;-74
2021/06/18 07:04:51;;;;;;;8.30;4.85;;;27.60;57.60;;;;;;5105229;28;20039;-69
2021/06/18 07:07:37;;;;;;;7.28;4.65;;;27.70;57.30;;;;;;5102611;28;20495;-69
2021/06/18 07:10:23;;;;;;;7.30;4.82;;;27.80;57.00;;;;;;5108065;28;20088;-70
2021/06/18 07:13:08;;;;;;;9.63;5.03;;;27.80;57.00;;;;;;5108093;28;20031;-70
2021/06/18 07:15:55;;;;;;;5.43;4.60;;;27.90;56.40;;;;;;5104353;28;20032;-71
2021/06/18 07:18:41;;;;;;;9.23;4.72;;;27.90;55.70;;;;;;5127106;28;20528;-70
2021/06/18 07:21:26;;;;;;;6.47;4.25;;;28.00;56.10;;;;;;5084858;28;20400;-71
2021/06/18 07:24:12;;;;;;;6.47;4.60;;;28.10;55.50;;;;;;5103245;28;20592;-71
2021/06/18 07:26:58;;;;;;;7.95;4.40;;;28.20;55.40;;;;;;5106877;28;20020;-70
2021/06/18 07:29:44;;;;;;;6.95;4.38;;;28.30;55.20;;;;;;5115751;27;20042;-71
2021/06/18 07:32:30;;;;;;;6.63;4.65;;;28.30;55.00;;;;;;5097590;28;20035;-70
2021/06/18 07:35:16;;;;;;;9.00;4.78;;;28.40;54.90;;;;;;5107557;27;20031;-70
2021/06/18 07:38:03;;;;;;;8.07;4.25;;;28.40;54.90;;;;;;5110476;28;20027;-70
2021/06/18 07:40:49;;;;;;;7.75;4.28;;;28.50;54.50;;;;;;5102076;28;20028;-71
2021/06/18 07:43:35;;;;;;;6.82;4.07;;;28.60;54.30;;;;;;5098305;28;20028;-71
2021/06/18 07:46:23;;;;;;;6.30;3.70;;;28.70;53.70;;;;;;5111419;28;20060;-70
2021/06/18 07:49:09;;;;;;;7.40;4.05;;;28.70;53.40;;;;;;5122626;27;20074;-70
2021/06/18 07:51:55;;;;;;;5.13;4.00;;;28.90;53.50;;;;;;5115294;27;20506;-71
2021/06/18 07:54:41;;;;;;;8.98;4.63;;;28.90;53.40;;;;;;5112647;27;20039;-71
2021/06/18 07:57:27;;;;;;;6.50;4.07;;;29.00;52.60;;;;;;5111106;27;20031;-69
2021/06/18 08:00:13;;;;;;;6.68;4.25;;;29.10;52.50;;;;;;5108484;28;20032;-69
2021/06/18 08:02:59;;;;;;;8.80;4.00;;;29.20;52.40;;;;;;5128186;27;20056;-69
2021/06/18 08:05:45;;;;;;;7.63;3.72;;;29.30;52.60;;;;;;5117716;27;20027;-68
2021/06/18 08:08:31;;;;;;;19.75;5.90;;;29.30;51.60;;;;;;5115259;27;20084;-68
2021/06/18 08:11:17;;;;;;;6.72;3.90;;;29.40;51.50;;;;;;5124330;27;20042;-68
2021/06/18 08:14:03;;;;;;;4.93;3.80;;;29.40;51.40;;;;;;5112885;28;20035;-68
2021/06/18 08:16:49;;;;;;;8.15;4.20;;;29.50;50.20;;;;;;5108651;27;20031;-68
2021/06/18 08:19:35;;;;;;;4.57;3.47;;;29.50;50.10;;;;;;5099787;28;20023;-68
2021/06/18 08:22:21;;;;;;;9.73;3.90;;;29.60;50.10;;;;;;5114758;27;20019;-69
2021/06/18 08:25:07;;;;;;;5.88;4.00;;;29.60;49.00;;;;;;5123467;27;20062;-69
2021/06/18 08:27:53;;;;;;;5.55;3.60;;;29.70;49.10;;;;;;5115622;27;20023;-69
2021/06/18 08:30:39;;;;;;;5.90;3.30;;;29.80;48.80;;;;;;5116324;27;20023;-69
2021/06/18 08:33:25;;;;;;;7.30;3.63;;;29.90;48.40;;;;;;5121143;27;20027;-70
2021/06/18 08:36:11;;;;;;;9.38;3.90;;;29.90;48.10;;;;;;5125856;27;20514;-69
2021/06/18 08:38:57;;;;;;;7.82;4.28;;;30.00;47.80;;;;;;5109914;28;20038;-69
2021/06/18 08:41:43;;;;;;;6.00;4.07;;;30.10;48.10;;;;;;5085758;27;20032;-69
2021/06/18 08:44:29;;;;;;;7.95;4.07;;;30.20;47.90;;;;;;5121445;27;20034;-69
2021/06/18 08:47:15;;;;;;;6.13;3.38;;;30.20;47.30;;;;;;5107468;27;20043;-69
2021/06/18 08:50:00;;;;;;;7.75;3.45;;;30.30;47.20;;;;;;5094410;27;20708;-69
2021/06/18 08:52:47;;;;;;;5.68;3.55;;;30.30;47.10;;;;;;5101730;27;20066;-68
2021/06/18 08:55:33;;;;;;;4.65;3.38;;;30.40;46.10;;;;;;5106852;28;20032;-68
2021/06/18 08:58:19;;;;;;;6.50;3.67;;;30.40;46.10;;;;;;5109572;27;20023;-67
2021/06/18 09:01:05;;;;;;;8.32;3.70;;;30.50;46.20;;;;;;5099782;27;20037;-67
2021/06/18 09:03:54;;;;;;;6.03;3.30;;;30.60;45.80;;;;;;5111919;27;20388;-68
2021/06/18 09:06:40;;;;;;;5.68;3.80;;;30.70;45.60;;;;;;5121377;27;20023;-68
2021/06/18 09:09:31;;;;;;;6.40;3.97;;;30.70;45.70;;;;;;5105947;28;20047;-68
2021/06/18 09:12:17;;;;;;;6.47;3.33;;;30.80;45.10;;;;;;5107678;27;20015;-68
2021/06/18 09:15:03;;;;;;;7.82;3.47;;;30.80;44.80;;;;;;5109904;27;20039;-68
2021/06/18 09:17:49;;;;;;;9.10;3.70;;;30.80;44.80;;;;;;5090727;27;20061;-68
2021/06/18 09:20:34;;;;;;;5.72;3.90;;;30.90;45.00;;;;;;5109272;27;20032;-68
2021/06/18 09:23:24;;;;;;;6.53;3.25;;;31.00;44.60;;;;;;5107697;28;20031;-67
2021/06/18 09:26:33;;;;;;;6.10;3.85;;;31.10;44.20;;;;;;5113387;27;20038;-68
2021/06/18 09:29:19;;;;;;;4.68;4.03;;;31.10;44.40;;;;;;5110432;28;20598;-68
2021/06/18 09:32:14;;;;;;;6.13;3.65;;;31.10;44.50;;;;;;5110024;28;20034;-68
2021/06/18 09:35:03;;;;;;;5.78;3.97;;;31.20;44.10;;;;;;5092645;28;20049;-69
2021/06/18 09:37:58;;;;;;;5.30;4.07;;;31.20;43.70;;;;;;5098251;28;20031;-68
2021/06/18 09:40:43;;;;;;;6.15;3.78;;;31.30;43.70;;;;;;5106008;28;20028;-68
2021/06/18 09:43:43;;;;;;;6.15;3.53;;;31.30;43.60;;;;;;5092187;28;20411;-69
2021/06/18 09:46:52;;;;;;;7.20;3.47;;;31.40;43.30;;;;;;5117571;27;20117;-67
2021/06/18 09:49:40;;;;;;;8.40;3.50;;;31.50;43.90;;;;;;5116291;27;20035;-66
2021/06/18 09:52:27;;;;;;;9.95;3.75;;;31.60;43.60;;;;;;5115091;27;20031;-66
2021/06/18 09:55:23;;;;;;;6.47;3.80;;;31.60;43.60;;;;;;5110418;27;20606;-68
2021/06/18 09:58:11;;;;;;;7.30;3.50;;;31.70;43.70;;;;;;5112837;27;20449;-68
2021/06/18 10:01:36;;;;;;;8.00;3.78;;;31.70;43.40;;;;;;5094087;28;20028;-68
2021/06/18 10:04:24;;;;;;;5.68;3.47;;;31.90;43.60;;;;;;5030559;28;20133;-69
2021/06/18 10:07:11;;;;;;;4.90;3.70;;;31.90;43.40;;;;;;5042447;28;20030;-69
2021/06/18 10:09:58;;;;;;;7.88;3.70;;;31.90;43.00;;;;;;5102269;27;20035;-69
2021/06/18 10:12:45;;;;;;;4.13;3.72;;;32.00;43.00;;;;;;5095550;28;20031;-68
2021/06/18 10:15:37;;;;;;;4.45;3.45;;;32.10;43.20;;;;;;5100108;27;20043;-69
2021/06/18 10:18:23;;;;;;;6.55;3.65;;;32.10;42.70;;;;;;5101478;28;20036;-68
2021/06/18 10:21:09;;;;;;;5.00;3.83;;;32.20;43.00;;;;;;5104315;27;20034;-68
2021/06/18 10:23:59;;;;;;;4.65;3.17;;;32.30;43.40;;;;;;5100726;28;20459;-68
2021/06/18 10:26:50;;;;;;;6.93;3.03;;;32.40;42.20;;;;;;5107937;28;20024;-68
2021/06/18 10:29:41;;;;;;;5.32;3.33;;;32.40;42.00;;;;;;5093288;28;20092;-67
2021/06/18 10:32:26;;;;;;;4.25;3.53;;;32.40;42.20;;;;;;5104721;28;20058;-68
2021/06/18 10:35:41;;;;;;;6.20;3.45;;;32.50;42.30;;;;;;5110633;27;20051;-70
2021/06/18 10:38:36;;;;;;;4.07;3.60;;;32.50;41.70;;;;;;5125407;27;20031;-69
2021/06/18 10:41:25;;;;;;;;;;;32.60;42.00;;;;;;5116616;27;20023;-69
2021/06/18 10:44:11;;;;;;;6.70;3.50;;;32.60;42.40;;;;;;5108363;28;19908;-69
2021/06/18 10:46:57;;;;;;;6.07;3.80;;;32.60;42.20;;;;;;5106294;28;20023;-69
2021/06/18 10:49:43;;;;;;;4.65;3.42;;;32.60;41.40;;;;;;5104840;28;20126;-69
2021/06/18 10:52:38;;;;;;;5.65;3.78;;;32.70;41.40;;;;;;5101368;28;20049;-69
2021/06/18 10:55:47;;;;;;;4.47;3.38;;;32.70;41.30;;;;;;5092645;28;20058;-69
2021/06/18 10:59:12;;;;;;;4.70;3.40;;;32.70;40.90;;;;;;5095323;28;20441;-68
2021/06/18 11:02:00;;;;;;;3.72;3.05;;;32.80;41.00;;;;;;5102735;27;20036;-69
2021/06/18 11:04:55;;;;;;;5.60;3.03;;;32.80;40.80;;;;;;5118759;27;20047;-68
2021/06/18 11:07:42;;;;;;;5.95;3.88;;;32.80;40.40;;;;;;5099650;28;20130;-68
2021/06/18 11:10:29;;;;;;;5.60;3.30;;;32.90;40.80;;;;;;5114776;27;20042;-68
2021/06/18 11:13:17;;;;;;;5.88;3.58;;;32.90;40.50;;;;;;5114359;27;20023;-68
2021/06/18 11:16:04;;;;;;;6.60;3.28;;;32.80;40.20;;;;;;5107028;27;20780;-68
2021/06/18 11:18:50;;;;;;;5.90;3.30;;;32.90;40.20;;;;;;5128714;27;20436;-68
2021/06/18 11:21:35;;;;;;;4.43;3.17;;;32.90;39.90;;;;;;5126695;27;20483;-67
2021/06/18 11:24:39;;;;;;;4.20;3.17;;;33.00;39.80;;;;;;5111035;27;20024;-68
2021/06/18 11:27:28;;;;;;;4.95;3.40;;;33.00;39.70;;;;;;5111460;28;20035;-69
2021/06/18 11:30:30;;;;;;;4.10;3.22;;;33.00;39.60;;;;;;5112755;28;20081;-68
2021/06/18 11:33:41;;;;;;;5.35;3.25;;;33.00;38.80;;;;;;5123226;27;20506;-68
2021/06/18 11:36:41;;;;;;;7.38;3.75;;;33.10;38.80;;;;;;5112760;27;20399;-68
2021/06/18 11:39:28;;;;;;;6.10;3.40;;;33.10;38.70;;;;;;5111682;27;20027;-68
2021/06/18 11:42:14;;;;;;;6.55;3.30;;;33.10;38.80;;;;;;5111749;27;20040;-68
2021/06/18 11:45:00;;;;;;;5.43;3.30;;;33.10;39.30;;;;;;5094332;28;20051;-68
2021/06/18 11:47:46;;;;;;;4.18;3.17;;;33.10;39.30;;;;;;5083685;28;20020;-68
2021/06/18 11:50:37;;;;;;;6.18;3.17;;;33.20;39.10;;;;;;5103366;27;20421;-69
2021/06/18 11:53:34;;;;;;;7.88;3.00;;;33.20;38.20;;;;;;5120272;27;20019;-68
2021/06/18 11:56:20;;;;;;;6.25;3.20;;;33.20;38.20;;;;;;5123065;27;20035;-68
2021/06/18 11:59:13;;;;;;;4.15;3.22;;;33.20;37.90;;;;;;5111492;27;20084;-68
2021/06/18 12:02:12;;;;;;;6.18;3.35;;;33.20;38.00;;;;;;5129015;27;20031;-68
2021/06/18 12:05:13;;;;;;;7.50;3.30;;;33.20;37.90;;;;;;5096903;28;20095;-70
2021/06/18 12:08:00;;;;;;;6.05;2.92;;;33.30;38.50;;;;;;5100603;28;20047;-68
2021/06/18 12:10:46;;;;;;;6.00;3.13;;;33.30;38.00;;;;;;5117828;27;20049;-68
2021/06/18 12:13:32;;;;;;;7.03;3.55;;;33.40;37.80;;;;;;5101683;27;20110;-69
2021/06/18 12:16:22;;;;;;;3.40;3.00;;;33.40;38.30;;;;;;5099512;27;20028;-68
2021/06/18 12:19:48;;;;;;;9.23;3.65;;;33.50;37.90;;;;;;5109415;27;20071;-68
2021/06/18 12:22:34;;;;;;;7.97;3.28;;;33.50;38.50;;;;;;5088031;28;20035;-70
2021/06/18 12:25:20;;;;;;;8.00;3.33;;;33.60;38.10;;;;;;5081730;28;20027;-69
2021/06/18 12:28:08;;;;;;;9.30;3.35;;;33.60;37.80;;;;;;5109404;28;20047;-68
2021/06/18 12:30:57;;;;;;;6.28;3.60;;;33.60;38.30;;;;;;5108567;28;20023;-66
2021/06/18 12:33:43;;;;;;;6.93;3.58;;;33.70;38.70;;;;;;5109863;28;20019;-68
2021/06/18 12:36:34;;;;;;;5.65;3.15;;;33.80;37.70;;;;;;5104791;28;20030;-67
2021/06/18 12:39:20;;;;;;;4.00;3.60;;;33.80;38.40;;;;;;5113535;27;20028;-68
2021/06/18 12:42:06;;;;;;;4.35;3.28;;;33.90;37.90;;;;;;5107425;28;20024;-70
2021/06/18 12:45:13;;;;;;;5.70;3.65;;;34.00;37.90;;;;;;5107388;28;20119;-69
2021/06/18 12:48:15;;;;;;;10.10;3.45;;;34.10;38.00;;;;;;5107035;28;20084;-67
2021/06/18 12:51:03;;;;;;;4.88;3.78;;;34.10;38.30;;;;;;5112197;27;20031;-68
2021/06/18 12:53:50;;;;;;;9.13;3.72;;;34.20;38.50;;;;;;5109020;27;20023;-68
2021/06/18 12:56:41;;;;;;;8.18;3.55;;;34.30;38.60;;;;;;5101624;28;20028;-69
2021/06/18 12:59:38;;;;;;;4.90;3.75;;;34.50;37.50;;;;;;5110721;28;20016;-68
2021/06/18 13:02:40;;;;;;;5.25;3.33;;;34.60;37.30;;;;;;5102909;28;20030;-68
2021/06/18 13:05:27;;;;;;;9.25;3.55;;;34.60;37.70;;;;;;5109214;28;20498;-67
2021/06/18 13:08:19;;;;;;;4.75;3.60;;;34.80;37.90;;;;;;5106791;28;20036;-66
2021/06/18 13:11:22;;;;;;;6.30;3.42;;;34.90;37.70;;;;;;5107154;27;20032;-66
2021/06/18 13:14:14;;;;;;;5.70;3.72;;;35.00;37.70;;;;;;5108824;28;20027;-66
2021/06/18 13:17:00;;;;;;;4.40;3.70;;;35.00;37.30;;;;;;5105510;28;20035;-68
2021/06/18 13:19:51;;;;;;;6.30;3.45;;;35.10;37.20;;;;;;5098502;27;20028;-67
2021/06/18 13:22:37;;;;;;;7.55;3.80;;;35.10;36.90;;;;;;5108678;28;20020;-67
2021/06/18 13:25:28;;;;;;;10.57;3.80;;;35.20;36.90;;;;;;5110941;27;20479;-67
2021/06/18 13:28:34;;;;;;;4.65;3.85;;;35.20;37.10;;;;;;5117236;27;20035;-67
2021/06/18 13:31:23;;;;;;;7.63;3.33;;;35.30;36.30;;;;;;5127341;27;20494;-67
2021/06/18 13:34:09;;;;;;;12.65;4.15;;;35.40;36.30;;;;;;5106797;27;20035;-65
2021/06/18 13:37:04;;;;;;;4.07;3.53;;;35.50;36.00;;;;;;5105883;27;20019;-66
2021/06/18 13:40:09;;;;;;;5.75;3.30;;;35.60;36.20;;;;;;5104231;28;20483;-66
2021/06/18 13:42:55;;;;;;;8.15;4.30;;;35.60;36.10;;;;;;5107773;28;20067;-65
2021/06/18 13:45:41;;;;;;;6.38;3.13;;;35.60;36.10;;;;;;5090884;28;20019;-67
2021/06/18 13:48:31;;;;;;;7.68;3.35;;;35.60;36.10;;;;;;5102167;28;20039;-67
2021/06/18 13:51:16;;;;;;;4.00;3.60;;;35.70;36.00;;;;;;5088069;28;20055;-66
2021/06/18 13:54:03;;;;;;;4.95;3.38;;;35.80;35.70;;;;;;5113608;27;20038;-67
2021/06/18 13:56:49;;;;;;;5.93;3.80;;;35.90;35.70;;;;;;5115041;27;20483;-68
2021/06/18 13:59:35;;;;;;;5.28;3.50;;;36.00;35.50;;;;;;5103367;27;20035;-65
2021/06/18 14:02:21;;;;;;;6.03;3.22;;;36.00;35.30;;;;;;5111549;27;20038;-66
2021/06/18 14:05:07;;;;;;;6.60;3.40;;;36.10;35.00;;;;;;5098969;28;20130;-66
2021/06/18 14:07:53;;;;;;;6.18;4.30;;;36.10;35.10;;;;;;5101386;28;22585;-67
2021/06/18 14:10:40;;;;;;;6.40;3.63;;;36.20;35.20;;;;;;5102587;28;20023;-65
2021/06/18 14:13:26;;;;;;;6.68;3.33;;;36.20;34.90;;;;;;5107224;27;20023;-65
2021/06/18 14:16:12;;;;;;;6.28;3.20;;;36.20;34.60;;;;;;5103942;28;20080;-66
2021/06/18 14:18:57;;;;;;;5.90;3.60;;;36.40;34.70;;;;;;5106692;28;20096;-65
2021/06/18 14:21:43;;;;;;;6.03;3.30;;;36.50;34.80;;;;;;5107903;28;20024;-66
2021/06/18 14:24:29;;;;;;;6.32;3.72;;;36.50;34.30;;;;;;5106059;28;20035;-66
2021/06/18 14:27:15;;;;;;;5.78;3.30;;;36.50;34.70;;;;;;5104055;28;20072;-66
2021/06/18 14:30:01;;;;;;;5.07;3.42;;;36.50;34.40;;;;;;5105247;27;20395;-66
2021/06/18 14:32:47;;;;;;;5.07;3.78;;;36.60;34.30;;;;;;5096366;28;20019;-66
2021/06/18 14:35:33;;;;;;;10.35;3.60;;;36.70;34.30;;;;;;5101924;27;20041;-66